Bellmore, Indiana
Current Conditions -  °F | °C
As of 12:35 PM on Friday 31 Oct 2014 (Local Time) from K4I7 Reporting Station
Overcast Overcast  
Wind Chill: -1°   Ceiling: 7500
Heat Index:   Visibility: 10mi
Dew Point:   Wind: 12mph
Humidity: 81%   Direction: 320°NW
Pressure: 30.06"   Gusts: 20mph
Location:  39.76°N, 87.11°W
Report Text: K4I7 311635Z AUTO 32010G17KT 10SM SCT023 OVC075 03/00 A3006 RMK AO2
Loading
Personal Weather Stations






























Interactive Weather Map
Tropical Storm Tracking
New forecast layout! Learn more

10-Day Weather Forecast

Advertisements
Track Severe Weather on mobile